Tsu, Japan
Current Conditions -  °F | °C
As of 5:00 AM on Thursday 18 Dec 2014 (Local Time) from RJGG Reporting Station
Snow Showers Snow Showers  
Wind Chill: 22°   Ceiling: 5000
Heat Index: 36°   Visibility: 6mi
Dew Point: 28°   Wind: 35mph
Humidity: 75%   Direction: 280°W
Pressure: 29.91"   Gusts: NA
Location:  34.72°N, 136.51°E
Report Text: RJGG 172000Z 28030KT 9999 -SHSN FEW015 SCT030 BKN050 02/M02 Q1013 BECMG 31020KT TEMPO 1500 -SHSN
Loading
Personal Weather Stations






























Interactive Weather Map New forecast layout! Learn more

10-Day Weather Forecast

Advertisements
Track Severe Weather on mobile